Time;durP1;ratioP1;P1;durP2;ratioP2;P2;SDS_P1;SDS_P2;PMS_P1;PMS_P2;Temp;Humidity;BMP_temperature;BMP_pressure;BME280_temperature;BME280_humidity;BME280_pressure;Samples;Min_cycle;Max_cycle;Signal;HPM_P1;HPM_P2
2022/08/13 00:01:22;;;;;;;10.32;3.35;;;;;;;21.97;54.48;101269.16;5056560;28;20077;-76
2022/08/13 00:03:52;;;;;;;11.73;4.75;;;;;;;21.93;54.17;101273.34;5053389;28;20704;-77
2022/08/13 00:09:06;;;;;;;10.23;3.53;;;;;;;21.84;54.63;101267.69;5053166;28;20156;-77
2022/08/13 00:14:34;;;;;;;6.20;3.40;;;;;;;21.71;54.60;101266.97;5054650;28;20044;-78
2022/08/13 00:17:06;;;;;;;9.93;3.67;;;;;;;21.67;54.45;101271.94;5054132;28;20060;-77
2022/08/13 00:19:39;;;;;;;5.32;2.97;;;;;;;21.63;54.87;101266.44;5052670;28;20153;-77
2022/08/13 00:22:08;;;;;;;9.68;3.08;;;;;;;21.60;55.48;101264.53;5052135;28;20055;-78
2022/08/13 00:24:56;;;;;;;7.85;3.72;;;;;;;21.57;54.97;101273.91;5054396;28;20040;-77
2022/08/13 00:27:25;;;;;;;8.13;3.05;;;;;;;21.56;55.01;101272.34;5057538;28;20055;-77
2022/08/13 00:29:56;;;;;;;8.85;2.92;;;;;;;21.54;55.11;101268.41;5050715;28;20064;-77
2022/08/13 00:32:29;;;;;;;8.80;3.13;;;;;;;21.48;55.04;101267.44;5057374;28;20056;-78
2022/08/13 00:34:58;;;;;;;8.02;2.92;;;;;;;21.40;55.45;101263.31;5052891;28;20047;-78
2022/08/13 00:37:27;;;;;;;5.63;2.67;;;;;;;21.37;55.94;101265.03;5056832;28;20059;-78
2022/08/13 00:39:59;;;;;;;7.77;2.80;;;;;;;21.32;55.61;101261.97;5053633;28;20048;-80
2022/08/13 00:42:50;;;;;;;10.55;2.95;;;;;;;21.28;55.87;101255.72;5054532;28;20408;-79
2022/08/13 00:45:18;;;;;;;9.75;3.40;;;;;;;21.29;56.00;101251.66;5054881;28;20977;-79
2022/08/13 00:50:35;;;;;;;9.30;2.75;;;;;;;21.24;56.82;101253.03;5046439;28;20054;-79
2022/08/13 00:53:04;;;;;;;8.63;3.00;;;;;;;21.23;57.05;101254.25;5053499;28;20044;-79
2022/08/13 00:55:31;;;;;;;9.57;3.10;;;;;;;21.20;57.30;101254.41;5049988;28;20084;-79
2022/08/13 00:57:59;;;;;;;6.32;2.45;;;;;;;21.11;57.64;101251.50;5047032;28;20423;-79
2022/08/13 01:00:28;;;;;;;6.22;2.72;;;;;;;21.09;56.41;101254.78;5055490;28;20045;-79
2022/08/13 01:02:56;;;;;;;7.28;2.75;;;;;;;21.09;56.69;101254.78;5055420;28;20050;-78
2022/08/13 01:05:43;;;;;;;7.28;2.88;;;;;;;21.04;58.10;101252.56;5051469;28;20165;-77
2022/08/13 01:08:16;;;;;;;7.28;2.97;;;;;;;21.00;58.61;101251.91;5057934;28;20041;-80
2022/08/13 01:10:48;;;;;;;4.63;2.72;;;;;;;21.00;58.46;101248.28;5056518;28;20051;-77
2022/08/13 01:13:25;;;;;;;8.45;2.90;;;;;;;20.96;58.83;101251.22;5054072;28;20052;-80
2022/08/13 01:15:56;;;;;;;5.38;2.67;;;;;;;20.93;58.01;101254.97;5055569;28;20083;-77
2022/08/13 01:18:27;;;;;;;8.93;2.67;;;;;;;20.90;58.37;101257.84;5057652;28;20114;-77
2022/08/13 01:21:09;;;;;;;6.28;2.67;;;;;;;20.85;59.15;101247.97;5057320;28;20091;-79
2022/08/13 01:23:37;;;;;;;8.27;4.35;;;;;;;20.86;58.64;101257.19;5058919;28;20044;-79
2022/08/13 01:26:08;;;;;;;6.35;2.60;;;;;;;20.83;58.83;101249.66;5053395;28;20052;-79
2022/08/13 01:28:38;;;;;;;5.57;2.72;;;;;;;20.81;59.22;101254.94;5053981;28;20151;-78
2022/08/13 01:31:10;;;;;;;8.40;2.78;;;;;;;20.77;58.37;101251.47;5048775;28;20052;-79
2022/08/13 01:33:47;;;;;;;13.18;2.80;;;;;;;20.72;59.15;101260.50;5060815;28;20097;-78
2022/08/13 01:36:20;;;;;;;8.73;2.97;;;;;;;20.66;60.00;101260.31;5057843;28;20051;-78
2022/08/13 01:39:07;;;;;;;8.65;2.90;;;;;;;20.63;59.08;101257.59;5050150;28;20071;-76
2022/08/13 01:41:44;;;;;;;10.43;2.70;;;;;;;20.61;60.07;101258.03;5070100;28;20044;-76
2022/08/13 01:44:25;;;;;;;10.48;2.90;;;;;;;20.54;61.04;101249.06;5070391;28;20134;-77
2022/08/13 01:53:08;;;;;;;5.80;2.80;;;;;;;20.43;62.73;101253.00;5060644;28;20364;-77
2022/08/13 01:55:39;;;;;;;6.07;2.83;;;;;;;20.41;62.70;101245.50;5068987;28;20140;-77
2022/08/13 01:58:29;;;;;;;6.25;2.70;;;;;;;20.37;62.55;101245.59;5070358;28;20489;-77
2022/08/13 02:01:01;;;;;;;5.85;2.97;;;;;;;20.29;62.27;101247.09;5068467;28;20046;-77
2022/08/13 02:03:36;;;;;;;7.13;2.85;;;;;;;20.24;62.26;101234.38;5066449;28;20041;-76
2022/08/13 02:06:03;;;;;;;8.73;2.92;;;;;;;20.20;62.07;101232.91;5062313;28;20048;-75
2022/08/13 02:08:52;;;;;;;9.52;2.88;;;;;;;20.20;61.77;101256.19;5065968;28;20063;-77
2022/08/13 02:11:22;;;;;;;6.45;2.67;;;;;;;20.15;61.10;101253.94;5066585;28;20075;-76
2022/08/13 02:13:55;;;;;;;5.88;2.72;;;;;;;20.14;62.42;101252.38;5068854;28;20044;-76
2022/08/13 02:16:28;;;;;;;11.90;2.95;;;;;;;20.10;61.79;101251.66;5067581;28;20145;-76
2022/08/13 02:18:58;;;;;;;6.88;3.53;;;;;;;20.06;61.13;101242.56;5063483;28;20567;-76
2022/08/13 02:21:30;;;;;;;7.60;3.15;;;;;;;19.90;61.23;101239.06;5068927;28;20052;-78
2022/08/13 02:24:15;;;;;;;7.93;2.70;;;;;;;19.90;62.85;101256.72;5061141;28;20059;-77
2022/08/13 02:26:48;;;;;;;4.82;2.50;;;;;;;19.90;63.20;101251.09;5067918;28;20048;-76
2022/08/13 02:29:22;;;;;;;11.57;2.92;;;;;;;19.94;63.35;101251.78;5063771;28;20530;-77
2022/08/13 02:31:51;;;;;;;9.65;3.22;;;;;;;19.89;63.84;101251.53;5069419;28;20047;-76
2022/08/13 02:34:39;;;;;;;5.80;2.72;;;;;;;19.92;63.82;101259.06;5061799;28;20036;-76
2022/08/13 02:37:11;;;;;;;8.32;3.20;;;;;;;19.94;63.62;101259.41;5063957;28;20140;-76
2022/08/13 02:39:58;;;;;;;4.53;2.60;;;;;;;19.88;63.55;101253.56;5065395;28;20056;-76
2022/08/13 02:42:31;;;;;;;10.95;3.03;;;;;;;19.88;63.56;101261.22;5071208;28;20055;-77
2022/08/13 02:44:59;;;;;;;6.82;3.10;;;;;;;19.85;63.43;101256.50;5064250;28;20124;-76
2022/08/13 02:47:27;;;;;;;7.18;3.03;;;;;;;19.86;64.13;101260.84;5068244;28;20045;-76
2022/08/13 02:50:09;;;;;;;6.25;3.22;;;;;;;19.81;64.40;101261.44;5056725;28;20044;-77
2022/08/13 02:52:38;;;;;;;7.95;3.17;;;;;;;19.76;64.49;101262.75;5062559;28;20584;-76
2022/08/13 02:55:23;;;;;;;8.63;3.50;;;;;;;19.75;64.46;101254.78;5068094;28;20257;-75
2022/08/13 02:57:53;;;;;;;9.30;3.15;;;;;;;19.76;64.53;101262.75;5065186;28;20037;-76
2022/08/13 03:00:21;;;;;;;6.57;3.00;;;;;;;19.70;64.78;101269.38;5068729;28;20131;-74
2022/08/13 03:02:57;;;;;;;6.18;2.97;;;;;;;19.67;65.02;101264.63;5064389;28;20051;-75
2022/08/13 03:05:31;;;;;;;8.18;2.97;;;;;;;19.71;65.33;101268.16;5065336;28;20137;-76
2022/08/13 03:08:17;;;;;;;8.23;3.38;;;;;;;19.68;65.34;101272.63;5066605;28;20079;-75
2022/08/13 03:11:04;;;;;;;9.52;4.47;;;;;;;19.64;65.89;101271.94;5063330;28;20063;-74
2022/08/13 03:13:36;;;;;;;9.38;2.83;;;;;;;19.63;65.84;101266.78;5073767;28;20068;-75
2022/08/13 03:16:14;;;;;;;9.35;3.40;;;;;;;19.60;65.40;101268.44;5064762;28;20725;-78
2022/08/13 03:18:43;;;;;;;7.63;3.42;;;;;;;19.53;64.68;101260.25;5062249;28;20037;-75
2022/08/13 03:21:22;;;;;;;4.57;3.13;;;;;;;19.45;64.83;101278.53;5062060;28;20481;-75
2022/08/13 03:24:17;;;;;;;8.82;3.45;;;;;;;19.43;66.10;101271.75;5063900;28;20040;-76
2022/08/13 03:26:55;;;;;;;8.40;3.05;;;;;;;19.43;66.18;101271.75;5067389;28;20075;-76
2022/08/13 03:29:23;;;;;;;10.18;3.30;;;;;;;19.36;66.05;101274.78;5064028;28;20059;-75
2022/08/13 03:32:10;;;;;;;8.68;3.17;;;;;;;19.40;65.93;101281.06;5064773;28;20059;-75
2022/08/13 03:34:39;;;;;;;8.40;3.10;;;;;;;19.39;65.78;101283.09;5064118;28;20045;-77
2022/08/13 03:37:06;;;;;;;8.98;3.50;;;;;;;19.36;66.11;101280.38;5066761;28;20047;-75
2022/08/13 03:39:33;;;;;;;12.07;3.33;;;;;;;19.34;66.08;101280.81;5068965;28;20074;-75
2022/08/13 03:42:06;;;;;;;6.18;3.05;;;;;;;19.36;65.68;101277.59;5061105;28;20577;-75
2022/08/13 03:44:33;;;;;;;7.90;3.75;;;;;;;19.35;66.36;101279.63;5065802;28;20041;-75
2022/08/13 03:47:03;;;;;;;7.25;3.25;;;;;;;19.33;66.86;101276.47;5067057;28;20036;-75
2022/08/13 03:49:50;;;;;;;4.25;2.88;;;;;;;19.30;66.29;101271.72;5065802;28;20044;-75
2022/08/13 03:52:18;;;;;;;5.78;3.05;;;;;;;19.27;66.80;101274.66;5066450;28;20049;-75
2022/08/13 03:54:50;;;;;;;11.07;3.22;;;;;;;19.23;67.42;101269.09;5064140;28;20131;-77
2022/08/13 03:57:29;;;;;;;5.72;2.92;;;;;;;19.15;67.76;101264.91;5064478;28;20759;-76
2022/08/13 04:00:15;;;;;;;8.25;3.15;;;;;;;19.13;67.80;101275.78;5066810;28;20063;-75
2022/08/13 04:02:42;;;;;;;7.53;3.15;;;;;;;19.10;68.29;101271.06;5067115;28;20154;-75
2022/08/13 04:05:16;;;;;;;9.13;3.28;;;;;;;19.06;68.91;101267.56;5066583;28;20106;-74
2022/08/13 04:07:50;;;;;;;4.47;3.08;;;;;;;19.07;68.93;101274.75;5059212;28;20048;-77
2022/08/13 04:10:17;;;;;;;8.50;2.95;;;;;;;19.04;69.04;101286.06;5060188;28;20087;-76
2022/08/13 04:12:47;;;;;;;7.68;3.40;;;;;;;19.03;69.28;101278.88;5067978;28;20134;-75
2022/08/13 04:15:15;;;;;;;7.07;3.00;;;;;;;19.08;68.88;101275.53;5067577;28;20090;-77
2022/08/13 04:17:44;;;;;;;8.38;3.15;;;;;;;19.13;68.18;101272.22;5061045;28;20131;-75
2022/08/13 04:20:10;;;;;;;5.45;3.20;;;;;;;19.12;67.97;101274.22;5063905;28;20080;-76
2022/08/13 04:22:39;;;;;;;8.20;3.17;;;;;;;19.13;67.72;101280.63;5067715;28;20052;-76
2022/08/13 04:25:08;;;;;;;5.50;2.80;;;;;;;19.11;68.88;101271.84;5064183;28;20466;-75
2022/08/13 04:27:54;;;;;;;10.85;3.55;;;;;;;19.10;69.63;101279.47;5061625;28;20048;-77
2022/08/13 04:30:29;;;;;;;12.77;3.55;;;;;;;19.06;69.37;101272.38;5066471;28;20056;-74
2022/08/13 04:32:58;;;;;;;5.10;3.13;;;;;;;19.04;69.45;101280.47;5062908;28;20544;-74
2022/08/13 04:35:45;;;;;;;11.00;3.55;;;;;;;18.98;69.17;101276.59;5065461;28;20044;-74
2022/08/13 04:38:24;;;;;;;6.88;3.10;;;;;;;18.97;69.02;101281.41;5057296;28;20122;-74
2022/08/13 04:40:51;;;;;;;9.20;3.15;;;;;;;18.95;68.63;101281.09;5061641;28;20159;-74
2022/08/13 04:43:21;;;;;;;5.40;2.72;;;;;;;18.94;68.93;101284.34;5066550;28;20143;-74
2022/08/13 04:45:51;;;;;;;10.73;3.28;;;;;;;18.88;69.12;101275.66;5065798;28;20480;-74
2022/08/13 04:48:17;;;;;;;8.20;3.67;;;;;;;18.89;69.43;101282.84;5060459;28;20481;-75
2022/08/13 04:50:46;;;;;;;6.15;3.20;;;;;;;18.87;69.49;101278.91;5057668;28;20097;-74
2022/08/13 04:53:24;;;;;;;9.75;2.90;;;;;;;18.84;71.49;101277.78;5057740;28;20059;-77
2022/08/13 04:55:52;;;;;;;7.75;3.13;;;;;;;18.84;70.91;101280.59;5066382;28;20829;-74
2022/08/13 04:58:38;;;;;;;9.73;3.47;;;;;;;18.83;71.67;101279.00;5054210;28;20063;-75
2022/08/13 05:01:09;;;;;;;8.00;3.08;;;;;;;18.88;72.28;101284.09;5066461;28;20045;-74
2022/08/13 05:03:56;;;;;;;10.20;3.53;;;;;;;18.94;70.33;101284.34;5066015;28;20455;-73
2022/08/13 05:06:46;;;;;;;11.98;3.40;;;;;;;18.96;72.04;101284.66;5054158;28;20052;-75
2022/08/13 05:09:19;;;;;;;11.95;4.68;;;;;;;18.99;71.78;101286.59;5062172;28;20083;-77
2022/08/13 05:11:49;;;;;;;8.48;3.42;;;;;;;19.00;72.16;101286.16;5066547;28;20048;-76
2022/08/13 05:14:31;;;;;;;10.68;3.30;;;;;;;19.05;71.45;101288.44;5060718;28;20055;-74
2022/08/13 05:16:59;;;;;;;7.55;3.20;;;;;;;19.10;72.49;101296.28;5062738;28;20113;-76
2022/08/13 05:19:27;;;;;;;6.43;3.17;;;;;;;19.11;72.56;101281.06;5067753;28;20052;-75
2022/08/13 05:22:02;;;;;;;;;;;;;;;19.21;73.80;101296.81;5062039;28;20045;-74
2022/08/13 05:24:30;;;;;;;9.73;3.78;;;;;;;19.28;71.24;101295.84;5065559;28;19928;-76
2022/08/13 05:27:17;;;;;;;7.00;3.28;;;;;;;19.32;71.52;101297.34;5056606;28;20433;-78
2022/08/13 05:29:48;;;;;;;6.28;3.42;;;;;;;19.42;71.60;101301.88;5064354;28;20449;-74
2022/08/13 05:32:40;;;;;;;12.45;3.45;;;;;;;19.49;69.83;101303.66;5064862;28;20056;-74
2022/08/13 05:35:16;;;;;;;10.93;3.80;;;;;;;19.56;70.81;101298.66;5063092;28;20153;-74
2022/08/13 05:38:04;;;;;;;8.52;3.50;;;;;;;19.69;69.44;101305.09;5064150;28;20056;-74
2022/08/13 05:40:47;;;;;;;7.60;3.25;;;;;;;19.79;68.70;101306.00;5066822;28;20127;-76
2022/08/13 05:43:23;;;;;;;11.55;3.72;;;;;;;19.88;68.98;101306.91;5061097;28;20056;-74
2022/08/13 05:45:57;;;;;;;6.65;3.30;;;;;;;19.98;68.65;101305.81;5064367;28;20041;-75
2022/08/13 05:48:42;;;;;;;12.13;3.10;;;;;;;20.09;67.74;101306.25;5061963;28;20040;-75
2022/08/13 05:51:13;;;;;;;8.63;3.60;;;;;;;20.19;67.58;101298.78;5060086;28;20043;-75
2022/08/13 05:53:40;;;;;;;9.20;3.40;;;;;;;20.29;67.36;101298.44;5066817;28;20820;-74
2022/08/13 05:56:29;;;;;;;9.32;3.45;;;;;;;20.41;66.63;101299.66;5063719;28;20052;-75
2022/08/13 05:58:55;;;;;;;9.93;3.30;;;;;;;20.53;66.10;101298.88;5064520;28;20509;-74
2022/08/13 06:04:22;;;;;;;9.15;3.50;;;;;;;20.74;65.56;101298.19;5067333;28;20044;-74
2022/08/13 06:07:04;;;;;;;9.13;3.40;;;;;;;20.85;64.80;101287.34;5060128;28;20511;-76
2022/08/13 06:09:32;;;;;;;8.15;3.60;;;;;;;20.95;64.52;101297.47;5065821;28;20055;-73
2022/08/13 06:12:03;;;;;;;8.02;3.63;;;;;;;21.05;64.70;101292.72;5060983;28;20415;-74
2022/08/13 06:14:52;;;;;;;7.57;3.50;;;;;;;21.18;63.91;101305.50;5063846;28;20044;-73
2022/08/13 06:17:20;;;;;;;8.50;3.70;;;;;;;21.26;63.27;101298.38;5064727;28;20084;-73
2022/08/13 06:19:51;;;;;;;8.35;3.35;;;;;;;21.39;62.92;101301.16;5071877;28;20049;-75
2022/08/13 06:22:20;;;;;;;7.60;3.40;;;;;;;21.49;62.44;101297.94;5063038;28;20047;-75
2022/08/13 06:24:50;;;;;;;8.35;3.47;;;;;;;21.57;61.93;101302.06;5069215;28;20496;-74
2022/08/13 06:27:24;;;;;;;8.93;3.80;;;;;;;21.70;61.62;101299.19;5058362;28;20051;-77
2022/08/13 06:30:14;;;;;;;9.45;3.63;;;;;;;21.83;61.43;101300.72;5068678;28;20045;-77
2022/08/13 06:32:59;;;;;;;7.40;3.33;;;;;;;21.93;60.81;101305.16;5064466;28;20067;-77
2022/08/13 06:35:48;;;;;;;12.13;3.25;;;;;;;22.08;60.37;101296.94;5066187;28;20536;-76
2022/08/13 06:38:26;;;;;;;8.23;2.95;;;;;;;22.22;59.09;101299.19;5061491;28;20110;-77
2022/08/13 06:40:54;;;;;;;8.55;3.40;;;;;;;22.32;58.47;101307.22;5061633;28;20047;-75
2022/08/13 06:43:22;;;;;;;5.68;3.10;;;;;;;22.42;57.68;101306.03;5063010;28;20058;-76
2022/08/13 06:45:49;;;;;;;12.93;3.90;;;;;;;22.51;57.58;101308.13;5069013;28;20042;-79
2022/08/13 06:48:20;;;;;;;5.07;3.08;;;;;;;22.60;56.96;101311.75;5065069;28;20059;-77
2022/08/13 06:51:02;;;;;;;10.98;3.55;;;;;;;22.73;56.51;101308.78;5065213;28;20079;-76
2022/08/13 06:53:29;;;;;;;8.73;3.15;;;;;;;22.79;56.27;101301.28;5069064;28;20044;-75
2022/08/13 06:56:18;;;;;;;6.75;3.42;;;;;;;22.94;55.71;101304.31;5063957;28;20045;-76
2022/08/13 06:59:00;;;;;;;12.70;3.40;;;;;;;23.05;54.95;101305.38;5063453;28;20044;-75
2022/08/13 07:01:42;;;;;;;6.65;2.50;;;;;;;23.18;55.08;101310.91;5066595;28;20052;-75
2022/08/13 07:04:29;;;;;;;7.50;2.67;;;;;;;23.27;55.01;101302.47;5060799;28;20075;-77
2022/08/13 07:06:57;;;;;;;9.00;3.08;;;;;;;23.41;54.76;101311.09;5067188;28;20052;-76
2022/08/13 07:09:24;;;;;;;8.25;2.92;;;;;;;23.54;54.45;101305.28;5062004;28;20049;-76
2022/08/13 07:11:58;;;;;;;7.05;3.10;;;;;;;23.69;53.71;101309.78;5061554;28;20044;-78
2022/08/13 07:14:28;;;;;;;8.85;3.35;;;;;;;23.83;53.42;101314.03;5066491;28;20045;-78
2022/08/13 07:16:56;;;;;;;6.75;2.80;;;;;;;23.99;53.14;101316.53;5061225;28;20545;-78
2022/08/13 07:19:23;;;;;;;6.47;2.70;;;;;;;24.12;52.76;101317.91;5065210;28;20056;-78
2022/08/13 07:22:10;;;;;;;6.10;2.88;;;;;;;24.26;52.41;101317.22;5063771;28;20488;-77
2022/08/13 07:24:56;;;;;;;7.18;3.20;;;;;;;24.43;51.76;101321.22;5062499;28;20045;-77
2022/08/13 07:27:24;;;;;;;14.48;3.17;;;;;;;24.57;51.22;101314.88;5066185;28;20507;-78
2022/08/13 07:29:53;;;;;;;5.88;3.03;;;;;;;24.72;50.29;101317.81;5065472;28;20052;-78
2022/08/13 07:32:20;;;;;;;8.05;3.15;;;;;;;24.89;49.49;101313.31;5067127;28;20048;-77
2022/08/13 07:35:00;;;;;;;8.02;3.53;;;;;;;25.03;49.51;101313.38;5063312;28;20446;-78
2022/08/13 07:37:27;;;;;;;7.32;2.40;;;;;;;25.16;49.22;101310.28;5064295;28;20131;-80
2022/08/13 07:39:59;;;;;;;9.50;2.90;;;;;;;25.31;48.06;101311.13;5063754;28;20132;-78
2022/08/13 07:42:27;;;;;;;4.40;2.65;;;;;;;25.43;48.06;101314.97;5059357;28;20055;-79
2022/08/13 07:45:10;;;;;;;9.45;3.08;;;;;;;25.54;47.77;101320.88;5065713;28;20452;-78
2022/08/13 07:48:02;;;;;;;9.43;3.33;;;;;;;25.66;46.90;101312.09;5055809;28;20492;-77
2022/08/13 07:50:49;;;;;;;4.88;2.80;;;;;;;25.78;47.20;101321.59;5060381;28;20052;-77
2022/08/13 07:53:29;;;;;;;4.47;2.65;;;;;;;25.90;46.72;101320.50;5062277;28;20059;-77
2022/08/13 07:56:28;;;;;;;6.05;2.67;;;;;;;26.03;45.80;101321.03;5063794;28;20051;-78
2022/08/13 07:59:06;;;;;;;8.05;2.78;;;;;;;26.12;45.62;101312.41;5064075;28;20044;-78
2022/08/13 08:01:45;;;;;;;7.57;2.92;;;;;;;26.22;45.48;101323.16;5058576;28;20044;-78
2022/08/13 08:04:34;;;;;;;6.55;3.10;;;;;;;26.37;45.55;101321.09;5058201;28;20040;-78
2022/08/13 08:07:06;;;;;;;4.82;2.85;;;;;;;26.48;45.06;101321.25;5061043;28;20040;-77
2022/08/13 08:09:36;;;;;;;6.60;2.53;;;;;;;26.59;44.80;101317.81;5059320;28;20047;-76
2022/08/13 08:14:54;;;;;;;6.78;2.83;;;;;;;26.83;43.20;101315.63;5063014;28;20141;-76
2022/08/13 08:17:27;;;;;;;7.13;2.40;;;;;;;26.99;42.63;101323.56;5062556;28;20053;-73
2022/08/13 08:20:21;;;;;;;7.13;2.50;;;;;;;27.10;42.67;101318.81;5064113;28;20052;-73
2022/08/13 08:23:05;;;;;;;6.15;2.50;;;;;;;27.23;42.80;101312.78;5062059;28;20067;-73
2022/08/13 08:25:39;;;;;;;8.35;2.53;;;;;;;27.32;41.79;101318.34;5062276;28;20135;-76
2022/08/13 08:28:30;;;;;;;5.72;2.13;;;;;;;27.42;40.99;101312.00;5062964;28;20463;-74
2022/08/13 08:31:06;;;;;;;5.32;2.10;;;;;;;27.51;40.40;101319.59;5058940;28;20571;-76
2022/08/13 08:33:55;;;;;;;5.05;2.50;;;;;;;27.60;39.94;101310.91;5061376;28;20102;-75
2022/08/13 08:36:25;;;;;;;5.53;2.30;;;;;;;27.73;40.29;101321.91;5060124;28;20527;-77
2022/08/13 08:45:08;;;;;;;3.47;2.30;;;;;;;28.09;39.21;101313.47;5062140;28;20079;-77
2022/08/13 08:47:39;;;;;;;5.20;2.10;;;;;;;28.22;37.97;101315.91;5059975;28;20052;-76
2022/08/13 08:50:18;;;;;;;4.65;2.33;;;;;;;28.31;38.08;101307.19;5063821;28;20056;-75
2022/08/13 08:56:03;;;;;;;5.47;2.13;;;;;;;28.58;37.79;101310.25;5060628;28;20045;-75
2022/08/13 08:58:41;;;;;;;4.68;2.05;;;;;;;28.71;37.48;101307.75;5064053;28;20102;-77
2022/08/13 09:01:11;;;;;;;2.88;2.00;;;;;;;28.76;35.93;101309.06;5055750;28;20059;-75
2022/08/13 09:03:42;;;;;;;2.75;1.90;;;;;;;28.81;36.43;101305.47;5053215;28;20497;-75
2022/08/13 09:06:24;;;;;;;5.43;2.00;;;;;;;28.97;35.27;101291.31;5062158;28;20045;-74
2022/08/13 09:09:13;;;;;;;6.70;2.25;;;;;;;29.12;35.63;101300.47;5065585;28;20055;-72
2022/08/13 09:11:49;;;;;;;5.75;2.10;;;;;;;29.16;35.23;101292.44;5054924;28;20041;-74
2022/08/13 09:14:26;;;;;;;3.97;1.90;;;;;;;29.11;34.04;101296.06;5057764;28;20385;-74
2022/08/13 09:16:55;;;;;;;3.42;1.83;;;;;;;29.16;34.40;101288.84;5058495;28;20493;-74
2022/08/13 09:19:23;;;;;;;3.75;1.70;;;;;;;29.28;34.29;101293.28;5062860;28;20052;-76
2022/08/13 09:22:14;;;;;;;4.90;1.77;;;;;;;29.34;33.83;101286.31;5060035;28;20041;-73
2022/08/13 09:24:45;;;;;;;3.67;1.65;;;;;;;29.40;33.98;101272.84;5061532;28;20059;-73
2022/08/13 09:27:17;;;;;;;4.10;1.90;;;;;;;29.53;33.51;101275.97;5056660;28;20051;-74
2022/08/13 09:29:49;;;;;;;3.67;1.92;;;;;;;29.69;33.50;101277.31;5063473;28;20049;-74
2022/08/13 09:32:28;;;;;;;6.22;2.03;;;;;;;29.73;32.91;101277.88;5062707;28;20052;-73
2022/08/13 09:34:59;;;;;;;5.40;1.73;;;;;;;29.94;33.34;101278.41;5064481;28;20140;-74
2022/08/13 09:37:27;;;;;;;3.65;2.40;;;;;;;30.07;33.00;101276.59;5070371;28;20044;-72
2022/08/13 09:40:16;;;;;;;4.22;1.92;;;;;;;30.09;32.89;101264.66;5061606;28;20059;-72
2022/08/13 09:43:07;;;;;;;10.25;3.47;;;;;;;30.17;33.06;101274.28;5067977;28;20520;-74
2022/08/13 09:45:38;;;;;;;6.30;2.80;;;;;;;30.18;32.42;101273.75;5068199;28;20048;-72
2022/08/13 09:48:09;;;;;;;11.45;2.50;;;;;;;30.34;32.66;101270.13;5064024;28;20052;-74
2022/08/13 09:50:56;;;;;;;3.10;2.15;;;;;;;30.50;32.59;101272.16;5067574;28;20061;-73
2022/08/13 09:53:25;;;;;;;3.05;2.15;;;;;;;30.65;32.53;101255.50;5067203;28;20052;-74
2022/08/13 09:55:57;;;;;;;6.17;2.17;;;;;;;30.80;32.34;101258.06;5069966;28;20614;-73
2022/08/13 09:58:23;;;;;;;4.43;2.45;;;;;;;30.87;32.07;101252.59;5068716;28;20052;-74
2022/08/13 10:01:07;;;;;;;4.88;2.55;;;;;;;30.99;31.98;101259.03;5058775;28;20156;-72
2022/08/13 10:03:53;;;;;;;2.67;2.00;;;;;;;31.07;30.99;101251.44;5065993;28;20059;-73
2022/08/13 10:06:28;;;;;;;3.97;2.10;;;;;;;31.17;31.08;101249.84;5070316;28;20102;-73
2022/08/13 10:08:56;;;;;;;2.72;1.90;;;;;;;31.29;30.67;101254.25;5065210;28;20063;-74
2022/08/13 10:11:24;;;;;;;4.88;2.50;;;;;;;31.31;30.87;101249.53;5068333;28;20056;-74
2022/08/13 10:14:10;;;;;;;3.88;1.80;;;;;;;31.47;30.64;101242.16;5040171;28;20056;-74
2022/08/13 10:16:37;;;;;;;5.28;2.20;;;;;;;31.57;29.76;101247.03;5045457;28;20056;-75
2022/08/13 10:19:08;;;;;;;3.25;1.90;;;;;;;31.63;29.29;101236.34;5043595;28;20048;-74
2022/08/13 10:21:37;;;;;;;2.83;2.13;;;;;;;31.71;28.92;101230.81;5043867;28;20053;-73
2022/08/13 10:24:05;;;;;;;3.97;1.83;;;;;;;31.78;28.61;101235.94;5044859;28;20076;-74
2022/08/13 10:26:33;;;;;;;6.07;1.92;;;;;;;31.87;28.50;101229.94;5040342;28;20056;-74
2022/08/13 10:28:59;;;;;;;5.32;2.17;;;;;;;31.92;28.26;101238.47;5045261;28;20045;-76
2022/08/13 10:31:28;;;;;;;5.93;2.28;;;;;;;31.88;28.29;101234.34;5040650;28;20055;-75
2022/08/13 10:34:14;;;;;;;3.35;1.98;;;;;;;31.96;28.21;101218.16;5047024;28;20507;-74
2022/08/13 10:37:03;;;;;;;4.50;1.92;;;;;;;32.01;28.28;101220.16;5039226;28;20143;-73
2022/08/13 10:39:37;;;;;;;6.25;2.50;;;;;;;32.19;28.22;101218.72;5042203;28;20086;-73
2022/08/13 10:42:18;;;;;;;3.85;2.00;;;;;;;32.24;27.84;101209.28;5041289;28;20048;-73
2022/08/13 10:44:45;;;;;;;4.60;2.63;;;;;;;32.42;27.88;101209.38;5045886;28;20059;-73
2022/08/13 10:47:12;;;;;;;2.58;1.90;;;;;;;32.44;27.61;101212.47;5043419;28;20047;-73
2022/08/13 10:49:54;;;;;;;3.55;2.30;;;;;;;32.45;27.86;101208.28;5045552;28;20082;-73
2022/08/13 10:52:21;;;;;;;3.20;2.00;;;;;;;32.32;27.28;101205.31;5041638;28;20064;-75
2022/08/13 10:54:48;;;;;;;5.43;2.45;;;;;;;32.46;27.35;101206.97;5045886;28;20358;-72
2022/08/13 10:57:15;;;;;;;6.72;2.30;;;;;;;32.64;27.18;101203.38;5045064;28;20579;-73
2022/08/13 10:59:45;;;;;;;7.40;2.15;;;;;;;32.68;27.43;101198.13;5040902;28;20067;-72
2022/08/13 11:02:13;;;;;;;3.65;2.05;;;;;;;32.87;27.60;101201.81;5037687;28;20527;-73
2022/08/13 11:04:46;;;;;;;6.78;2.30;;;;;;;33.02;26.89;101202.13;5029031;28;20053;-74
2022/08/13 11:07:18;;;;;;;6.22;2.33;;;;;;;33.02;26.22;101199.25;5040145;28;20094;-73
2022/08/13 11:09:46;;;;;;;3.40;2.10;;;;;;;33.11;26.51;101201.75;5044444;28;20127;-73
2022/08/13 11:12:16;;;;;;;5.60;2.20;;;;;;;33.18;26.62;101189.66;5042496;28;20048;-73
2022/08/13 11:14:47;;;;;;;3.67;2.20;;;;;;;33.25;26.25;101183.31;5040193;28;20061;-72
2022/08/13 11:17:17;;;;;;;2.50;1.90;;;;;;;33.41;26.64;101185.16;5042048;28;20041;-72
2022/08/13 11:20:13;;;;;;;7.22;2.38;;;;;;;33.54;25.96;101187.31;5047065;28;20246;-74
2022/08/13 11:22:50;;;;;;;4.82;2.20;;;;;;;33.70;26.14;101180.50;5037426;28;20129;-72
2022/08/13 11:25:18;;;;;;;3.80;2.10;;;;;;;33.82;26.37;101185.53;5042055;28;20071;-73
2022/08/13 11:28:11;;;;;;;5.32;2.30;;;;;;;33.94;26.14;101178.28;5041495;28;20059;-73
2022/08/13 11:30:46;;;;;;;8.68;2.47;;;;;;;33.97;25.25;101176.41;5042029;28;20315;-74
2022/08/13 11:33:17;;;;;;;4.40;2.10;;;;;;;33.89;25.92;101166.91;5041551;28;20044;-73
2022/08/13 11:35:44;;;;;;;2.92;2.22;;;;;;;33.86;25.49;101160.16;5042750;28;20059;-74
2022/08/13 11:38:17;;;;;;;4.03;2.42;;;;;;;34.04;26.01;101162.19;5044498;28;20045;-73
2022/08/13 11:40:47;;;;;;;4.68;2.42;;;;;;;34.13;25.60;101158.88;5044834;28;20048;-73
2022/08/13 11:43:19;;;;;;;3.78;2.20;;;;;;;34.33;25.91;101153.78;5046787;28;20099;-73
2022/08/13 11:45:47;;;;;;;5.32;2.72;;;;;;;34.39;25.55;101158.13;5045818;28;20064;-73
2022/08/13 11:48:15;;;;;;;3.70;2.40;;;;;;;34.35;25.68;101151.94;5046616;28;20487;-73
2022/08/13 11:50:55;;;;;;;4.22;2.50;;;;;;;34.44;25.32;101156.47;5039088;28;20049;-73
2022/08/13 11:53:22;;;;;;;6.03;2.42;;;;;;;34.44;25.15;101156.47;5047047;28;20048;-74
2022/08/13 11:55:51;;;;;;;3.65;2.45;;;;;;;34.50;25.38;101157.91;5037532;28;20048;-74
2022/08/13 11:58:28;;;;;;;6.35;2.78;;;;;;;34.53;25.43;101150.28;5036662;28;20044;-73
2022/08/13 12:01:18;;;;;;;2.85;2.20;;;;;;;34.58;25.51;101152.28;5039593;28;20048;-74
2022/08/13 12:03:51;;;;;;;6.47;2.60;;;;;;;34.57;25.66;101153.56;5042541;28;20045;-75
2022/08/13 12:06:39;;;;;;;4.65;2.20;;;;;;;34.57;25.50;101134.25;5040344;28;20910;-74
2022/08/13 12:09:07;;;;;;;9.70;2.65;;;;;;;34.67;25.39;101131.69;5047314;28;20068;-75
2022/08/13 12:11:49;;;;;;;4.97;2.00;;;;;;;34.92;25.30;101141.63;5042237;28;20068;-72
2022/08/13 12:14:36;;;;;;;7.47;3.90;;;;;;;35.04;25.66;101125.63;5035118;28;20154;-72
2022/08/13 12:17:03;;;;;;;5.43;2.42;;;;;;;35.15;25.25;101123.28;5042791;28;20517;-71
2022/08/13 12:19:31;;;;;;;8.57;2.63;;;;;;;35.31;25.04;101118.44;5042419;28;20650;-71
2022/08/13 12:22:00;;;;;;;9.18;2.55;;;;;;;35.23;24.49;101124.09;5041480;28;20125;-72
2022/08/13 12:24:28;;;;;;;5.10;2.72;;;;;;;35.26;24.61;101114.38;5048304;28;20052;-73
2022/08/13 12:26:58;;;;;;;3.10;2.45;;;;;;;35.19;24.37;101115.06;5038268;28;21010;-76
2022/08/13 12:29:30;;;;;;;5.65;2.35;;;;;;;35.47;24.47;101120.16;5041202;28;20060;-73